createdAt,value
2023-04-04T00:00:48.628Z,1.60
2023-04-04T00:01:48.625Z,1.40
2023-04-04T00:02:48.735Z,1.40
2023-04-04T00:03:48.816Z,1.50
2023-04-04T00:04:48.654Z,1.50
2023-04-04T00:05:48.661Z,1.10
2023-04-04T00:06:48.604Z,1.50
2023-04-04T00:07:48.567Z,1.40
2023-04-04T00:08:48.575Z,1.60
2023-04-04T00:09:49.471Z,2.00
2023-04-04T00:10:48.552Z,1.50
2023-04-04T00:11:48.537Z,1.40
2023-04-04T00:12:48.547Z,1.40
2023-04-04T00:13:48.548Z,1.30
2023-04-04T00:14:49.242Z,1.30
2023-04-04T00:15:48.565Z,1.60
2023-04-04T00:16:48.540Z,1.60
2023-04-04T00:17:48.536Z,1.40
2023-04-04T00:18:48.502Z,1.50
2023-04-04T00:19:48.479Z,1.70
2023-04-04T00:20:49.267Z,1.30
2023-04-04T00:21:48.534Z,1.60
2023-04-04T00:22:48.464Z,1.70
2023-04-04T00:23:49.484Z,1.40
2023-04-04T00:24:48.437Z,1.50
2023-04-04T00:25:48.455Z,1.50
2023-04-04T00:26:48.934Z,1.60
2023-04-04T00:27:48.416Z,1.80
2023-04-04T00:28:48.414Z,1.50
2023-04-04T00:29:48.430Z,1.70
2023-04-04T00:30:48.440Z,1.40
2023-04-04T00:31:49.332Z,1.60
2023-04-04T00:32:48.421Z,1.50
2023-04-04T00:33:48.377Z,1.50
2023-04-04T00:34:48.385Z,1.60
2023-04-04T00:35:48.400Z,1.40
2023-04-04T00:36:48.382Z,1.70
2023-04-04T00:37:49.028Z,2.00
2023-04-04T00:38:48.335Z,1.90
2023-04-04T00:39:48.364Z,1.80
2023-04-04T00:40:48.331Z,1.80
2023-04-04T00:41:48.332Z,1.50
2023-04-04T00:42:48.417Z,1.70
2023-04-04T00:43:48.333Z,1.60
2023-04-04T00:44:48.315Z,1.80
2023-04-04T00:45:49.382Z,1.80
2023-04-04T00:46:48.290Z,1.60
2023-04-04T00:47:48.287Z,2.10
2023-04-04T00:48:48.251Z,1.80
2023-04-04T00:49:48.329Z,1.90
2023-04-04T00:50:48.263Z,1.70
2023-04-04T00:51:48.242Z,1.60
2023-04-04T00:52:48.272Z,1.60
2023-04-04T00:53:48.237Z,1.70
2023-04-04T00:54:48.225Z,1.80
2023-04-04T00:55:48.925Z,1.60
2023-04-04T00:56:48.227Z,2.10
2023-04-04T00:57:48.238Z,1.60
2023-04-04T00:58:48.243Z,1.50
2023-04-04T00:59:48.758Z,1.70
2023-04-04T01:00:48.294Z,1.70
2023-04-04T01:01:48.207Z,1.80
2023-04-04T01:02:48.232Z,2.10
2023-04-04T01:03:48.145Z,1.90
2023-04-04T01:04:48.157Z,1.90
2023-04-04T01:05:49.753Z,2.20
2023-04-04T01:06:48.186Z,1.60
2023-04-04T01:07:48.119Z,2.10
2023-04-04T01:08:48.109Z,1.90
2023-04-04T01:09:48.120Z,2.10
2023-04-04T01:10:48.902Z,2.30
2023-04-04T01:11:48.107Z,1.70
2023-04-04T01:12:48.137Z,2.40
2023-04-04T01:13:48.117Z,1.80
2023-04-04T01:14:48.071Z,1.90
2023-04-04T01:15:48.074Z,2.10
2023-04-04T01:16:48.091Z,2.20
2023-04-04T01:17:49.985Z,1.90
2023-04-04T01:18:48.058Z,2.30
2023-04-04T01:19:48.023Z,2.00
2023-04-04T01:20:48.004Z,1.80
2023-04-04T01:21:50.837Z,1.90
2023-04-04T01:22:48.015Z,2.00
2023-04-04T01:23:47.998Z,1.70
2023-04-04T01:24:48.005Z,2.10
2023-04-04T01:25:47.998Z,1.90
2023-04-04T01:26:47.995Z,2.20
2023-04-04T01:27:47.963Z,2.20
2023-04-04T01:28:48.140Z,2.70
2023-04-04T01:29:47.948Z,2.30
2023-04-04T01:30:47.972Z,1.90
2023-04-04T01:31:47.930Z,1.90
2023-04-04T01:32:47.965Z,2.30
2023-04-04T01:33:48.519Z,2.20
2023-04-04T01:34:47.985Z,1.90
2023-04-04T01:35:47.966Z,2.20
2023-04-04T01:36:47.895Z,2.50
2023-04-04T01:37:47.904Z,2.20
2023-04-04T01:38:47.892Z,2.00
2023-04-04T01:39:47.882Z,2.30
2023-04-04T01:40:47.882Z,2.50
2023-04-04T01:41:47.859Z,2.30
2023-04-04T01:42:47.848Z,2.30
2023-04-04T01:43:47.847Z,2.50
2023-04-04T01:44:47.853Z,2.20
2023-04-04T01:45:47.970Z,2.10
2023-04-04T01:46:47.819Z,2.10
2023-04-04T01:47:47.808Z,2.20
2023-04-04T01:48:47.835Z,2.20
2023-04-04T01:49:47.851Z,2.20
2023-04-04T01:50:47.813Z,2.40
2023-04-04T01:51:48.413Z,2.30
2023-04-04T01:52:47.766Z,2.20
2023-04-04T01:53:47.761Z,2.20
2023-04-04T01:54:47.792Z,2.50
2023-04-04T01:55:48.338Z,2.00
2023-04-04T01:56:48.357Z,1.90
2023-04-04T01:57:47.736Z,2.30
2023-04-04T01:58:47.745Z,2.20
2023-04-04T01:59:47.758Z,2.20
2023-04-04T02:00:47.707Z,2.00
2023-04-04T02:01:48.521Z,2.10
2023-04-04T02:02:47.714Z,1.90
2023-04-04T02:03:47.762Z,1.90
2023-04-04T02:04:47.677Z,2.50
2023-04-04T02:05:47.686Z,2.20
2023-04-04T02:06:48.345Z,2.30
2023-04-04T02:07:47.665Z,2.10
2023-04-04T02:08:47.657Z,2.30
2023-04-04T02:09:47.654Z,2.20
2023-04-04T02:10:47.656Z,2.20
2023-04-04T02:11:47.641Z,2.30
2023-04-04T02:12:47.637Z,2.40
2023-04-04T02:13:47.689Z,2.30
2023-04-04T02:14:47.607Z,2.20
2023-04-04T02:15:47.635Z,2.60
2023-04-04T02:16:47.598Z,2.00
2023-04-04T02:17:47.686Z,2.50
2023-04-04T02:18:47.653Z,2.20
2023-04-04T02:19:47.579Z,2.40
2023-04-04T02:20:47.615Z,2.60
2023-04-04T02:21:47.553Z,2.30
2023-04-04T02:22:47.552Z,2.70
2023-04-04T02:23:47.622Z,2.50
2023-04-04T02:24:47.527Z,2.50
2023-04-04T02:25:47.542Z,2.60
2023-04-04T02:26:47.553Z,2.20
2023-04-04T02:27:47.524Z,2.40
2023-04-04T02:28:47.569Z,2.10
2023-04-04T02:29:48.261Z,2.40
2023-04-04T02:30:47.485Z,2.20
2023-04-04T02:31:47.517Z,2.30
2023-04-04T02:32:48.554Z,2.30
2023-04-04T02:33:47.534Z,2.20
2023-04-04T02:34:48.321Z,2.30
2023-04-04T02:35:47.456Z,2.20
2023-04-04T02:36:47.494Z,2.20
2023-04-04T02:37:47.500Z,2.80
2023-04-04T02:38:47.574Z,2.50
2023-04-04T02:39:47.431Z,2.30
2023-04-04T02:40:47.448Z,2.40
2023-04-04T02:41:47.946Z,2.50
2023-04-04T02:42:47.376Z,2.40
2023-04-04T02:43:47.421Z,2.70
2023-04-04T02:44:47.988Z,2.50
2023-04-04T02:45:47.424Z,2.20
2023-04-04T02:46:47.928Z,2.30
2023-04-04T02:47:48.389Z,2.30
2023-04-04T02:48:47.919Z,2.50
2023-04-04T02:49:47.362Z,2.10
2023-04-04T02:50:47.394Z,2.40
2023-04-04T02:51:47.425Z,2.40
2023-04-04T02:52:47.427Z,2.40
2023-04-04T02:53:47.338Z,2.40
2023-04-04T02:54:47.306Z,2.40
2023-04-04T02:55:47.327Z,2.00
2023-04-04T02:56:47.303Z,2.50
2023-04-04T02:57:47.919Z,2.20
2023-04-04T02:58:47.366Z,2.10
2023-04-04T02:59:47.304Z,2.60
2023-04-04T03:00:47.310Z,2.20
2023-04-04T03:01:47.288Z,2.20
2023-04-04T03:02:47.392Z,2.50
2023-04-04T03:03:47.464Z,2.10
2023-04-04T03:04:47.244Z,2.40
2023-04-04T03:05:47.209Z,2.40
2023-04-04T03:06:47.221Z,2.60
2023-04-04T03:07:47.217Z,2.60
2023-04-04T03:08:47.220Z,2.60
2023-04-04T03:09:47.299Z,2.70
2023-04-04T03:10:47.217Z,2.90
2023-04-04T03:11:47.204Z,2.80
2023-04-04T03:12:47.176Z,2.90
2023-04-04T03:13:48.014Z,3.00
2023-04-04T03:14:47.970Z,3.10
2023-04-04T03:15:47.385Z,2.80
2023-04-04T03:16:47.236Z,2.80
2023-04-04T03:17:47.164Z,2.90
2023-04-04T03:18:47.150Z,2.70
2023-04-04T03:19:47.276Z,2.80
2023-04-04T03:20:47.154Z,2.80
2023-04-04T03:21:47.132Z,2.90
2023-04-04T03:22:47.114Z,3.00
2023-04-04T03:23:47.091Z,2.90
2023-04-04T03:24:47.142Z,2.80
2023-04-04T03:25:47.999Z,3.00
2023-04-04T03:26:47.065Z,2.80
2023-04-04T03:27:47.076Z,3.10
2023-04-04T03:28:47.063Z,3.10
2023-04-04T03:29:47.045Z,3.30
2023-04-04T03:30:47.039Z,3.60
2023-04-04T03:31:47.057Z,3.40
2023-04-04T03:32:47.069Z,3.30
2023-04-04T03:33:47.059Z,3.30
2023-04-04T03:34:47.059Z,3.50
2023-04-04T03:35:47.064Z,3.30
2023-04-04T03:36:47.018Z,2.90
2023-04-04T03:37:48.070Z,3.00
2023-04-04T03:38:47.000Z,3.30
2023-04-04T03:39:46.977Z,3.50
2023-04-04T03:40:47.969Z,3.00
2023-04-04T03:41:46.947Z,2.80
2023-04-04T03:42:47.089Z,3.00
2023-04-04T03:43:46.956Z,3.00
2023-04-04T03:44:46.944Z,3.50
2023-04-04T03:45:46.917Z,3.10
2023-04-04T03:46:46.911Z,3.30
2023-04-04T04:02:52.454Z,3.40
2023-04-04T04:03:52.506Z,3.00
2023-04-04T04:04:52.392Z,3.60
2023-04-04T04:05:52.375Z,3.70
2023-04-04T04:06:52.347Z,3.70
2023-04-04T04:07:53.489Z,3.40
2023-04-04T04:08:53.533Z,3.50
2023-04-04T04:09:53.500Z,3.90
2023-04-04T04:10:53.455Z,3.50
2023-04-04T04:11:53.592Z,3.50
2023-04-04T04:12:53.442Z,3.50
2023-04-04T04:13:53.466Z,3.30
2023-04-04T04:14:53.436Z,3.90
2023-04-04T04:15:53.468Z,3.80
2023-04-04T04:16:53.457Z,3.60
2023-04-04T04:17:53.488Z,3.40
2023-04-04T04:18:54.137Z,3.30
2023-04-04T04:19:53.401Z,3.90
2023-04-04T04:20:53.421Z,3.70
2023-04-04T04:21:53.383Z,4.40
2023-04-04T04:22:54.357Z,6.80
2023-04-04T04:23:55.130Z,7.80
2023-04-04T04:24:53.367Z,6.20
2023-04-04T04:25:53.409Z,6.00
2023-04-04T04:26:53.365Z,4.80
2023-04-04T04:27:53.357Z,5.00
2023-04-04T04:28:53.997Z,4.80
2023-04-04T04:29:54.130Z,4.30
2023-04-04T04:30:53.321Z,4.00
2023-04-04T04:31:53.444Z,4.10
2023-04-04T04:32:53.570Z,4.30
2023-04-04T04:33:53.315Z,4.10
2023-04-04T04:34:53.309Z,3.80
2023-04-04T04:35:53.312Z,3.80
2023-04-04T04:36:53.273Z,4.00
2023-04-04T04:37:53.283Z,3.80
2023-04-04T04:38:53.382Z,3.80
2023-04-04T04:39:53.278Z,4.20
2023-04-04T04:40:53.261Z,3.90
2023-04-04T04:41:53.262Z,4.00
2023-04-04T04:42:53.425Z,4.00
2023-04-04T04:43:54.249Z,4.20
2023-04-04T04:44:53.248Z,4.10
2023-04-04T04:45:53.216Z,4.20
2023-04-04T04:46:54.182Z,4.10
2023-04-04T04:47:53.265Z,3.70
2023-04-04T04:48:53.219Z,4.00
2023-04-04T04:49:53.243Z,3.80
2023-04-04T04:50:53.180Z,4.20
2023-04-04T04:51:56.141Z,4.20
2023-04-04T04:52:53.168Z,3.70
2023-04-04T04:53:53.180Z,4.20
2023-04-04T04:54:54.093Z,3.80
2023-04-04T04:55:53.162Z,4.10
2023-04-04T04:56:53.119Z,4.20
2023-04-04T04:57:53.153Z,4.10
2023-04-04T04:58:53.172Z,4.10
2023-04-04T04:59:53.134Z,4.00
2023-04-04T05:00:53.158Z,3.60
2023-04-04T05:01:53.108Z,3.70
2023-04-04T05:02:53.142Z,3.90
2023-04-04T05:03:53.539Z,4.20
2023-04-04T05:04:54.143Z,4.30
2023-04-04T05:05:53.068Z,4.50
2023-04-04T05:06:53.083Z,4.90
2023-04-04T05:07:53.053Z,5.30
2023-04-04T05:08:53.065Z,6.60
2023-04-04T05:09:53.088Z,7.10
2023-04-04T05:10:53.049Z,6.40
2023-04-04T05:11:53.005Z,7.40
2023-04-04T05:12:53.009Z,7.50
2023-04-04T05:13:53.012Z,9.00
2023-04-04T05:14:53.002Z,8.50
2023-04-04T05:15:52.997Z,7.80
2023-04-04T05:16:53.020Z,6.50
2023-04-04T05:17:52.997Z,6.10
2023-04-04T05:18:52.987Z,5.90
2023-04-04T05:19:53.145Z,5.50
2023-04-04T05:20:52.955Z,5.20
2023-04-04T05:21:52.962Z,5.30
2023-04-04T05:22:53.593Z,4.90
2023-04-04T05:23:52.947Z,5.10
2023-04-04T05:24:52.961Z,5.60
2023-04-04T05:25:53.021Z,5.40
2023-04-04T05:26:52.918Z,5.50
2023-04-04T05:27:52.890Z,4.90
2023-04-04T05:28:52.890Z,4.80
2023-04-04T05:29:52.901Z,4.90
2023-04-04T05:30:52.880Z,5.30
2023-04-04T05:31:52.916Z,4.90
2023-04-04T05:32:53.008Z,4.70
2023-04-04T05:33:52.853Z,4.30
2023-04-04T05:34:52.863Z,4.50
2023-04-04T05:35:52.907Z,4.00
2023-04-04T05:36:52.862Z,4.50
2023-04-04T05:37:52.966Z,4.30
2023-04-04T05:38:52.809Z,3.50
2023-04-04T05:39:52.829Z,3.70
2023-04-04T05:40:52.824Z,4.70
2023-04-04T05:41:52.845Z,5.20
2023-04-04T05:42:52.788Z,6.40
2023-04-04T05:43:52.807Z,6.90
2023-04-04T05:44:52.832Z,5.70
2023-04-04T05:45:52.803Z,5.80
2023-04-04T05:46:52.781Z,4.00
2023-04-04T05:47:52.775Z,3.80
2023-04-04T05:48:53.708Z,3.40
2023-04-04T05:49:52.761Z,3.50
2023-04-04T05:50:52.746Z,3.50
2023-04-04T05:51:52.749Z,3.40
2023-04-04T05:52:52.726Z,3.10
2023-04-04T05:53:52.729Z,3.00
2023-04-04T05:54:52.713Z,2.80
2023-04-04T05:55:52.681Z,3.00
2023-04-04T05:56:52.687Z,3.40
2023-04-04T05:57:52.721Z,3.90
2023-04-04T05:58:53.694Z,4.20
2023-04-04T05:59:52.677Z,4.50
2023-04-04T06:00:53.628Z,4.50
2023-04-04T06:01:52.646Z,4.20
2023-04-04T06:02:52.742Z,4.30
2023-04-04T06:03:52.730Z,3.70
2023-04-04T06:04:52.617Z,3.70
2023-04-04T06:05:52.841Z,3.50
2023-04-04T06:06:52.640Z,3.70
2023-04-04T06:07:52.641Z,3.80
2023-04-04T06:08:54.059Z,4.20
2023-04-04T06:09:53.757Z,4.20
2023-04-04T06:10:53.161Z,5.50
2023-04-04T06:11:52.563Z,8.50
2023-04-04T06:12:52.587Z,4.70
2023-04-04T06:13:52.549Z,9.80
2023-04-04T06:14:52.572Z,5.00
2023-04-04T06:15:53.569Z,4.00
2023-04-04T06:16:52.607Z,2.70
2023-04-04T06:17:53.511Z,2.60
2023-04-04T06:18:52.545Z,3.20
2023-04-04T06:19:52.520Z,5.90
2023-04-04T06:20:52.531Z,4.90
2023-04-04T06:21:52.526Z,3.30
2023-04-04T06:22:52.485Z,3.60
2023-04-04T06:23:52.490Z,2.90
2023-04-04T06:24:52.526Z,2.80
2023-04-04T06:25:52.504Z,3.10
2023-04-04T06:26:53.229Z,2.80
2023-04-04T06:27:55.139Z,3.10
2023-04-04T06:28:52.459Z,3.00
2023-04-04T06:29:52.468Z,3.30
2023-04-04T06:30:52.440Z,3.60
2023-04-04T06:31:52.451Z,3.30
2023-04-04T06:32:53.073Z,2.80
2023-04-04T06:33:52.439Z,3.10
2023-04-04T06:34:52.370Z,2.90
2023-04-04T06:35:53.419Z,3.40
2023-04-04T06:36:52.433Z,4.20
2023-04-04T06:37:54.137Z,3.30
2023-04-04T06:38:53.170Z,3.40
2023-04-04T06:39:53.175Z,3.50
2023-04-04T06:40:52.334Z,3.20
2023-04-04T06:41:53.625Z,2.50
2023-04-04T06:42:52.412Z,2.90
2023-04-04T06:43:53.036Z,2.70
2023-04-04T06:45:24.837Z,2.70
2023-04-04T06:45:52.313Z,2.40
2023-04-04T06:46:52.825Z,3.30
2023-04-04T06:47:52.353Z,2.80
2023-04-04T06:49:23.230Z,2.90
2023-04-04T06:50:10.890Z,2.50
2023-04-04T06:50:53.268Z,2.40
2023-04-04T06:51:53.697Z,2.50
2023-04-04T06:52:59.532Z,2.40
2023-04-04T06:53:53.500Z,2.30
2023-04-04T06:54:52.329Z,2.20
2023-04-04T06:55:59.295Z,2.50
2023-04-04T06:56:53.096Z,2.30
2023-04-04T06:57:53.992Z,2.30
2023-04-04T06:59:01.182Z,2.20
2023-04-04T07:01:49.986Z,2.20
2023-04-04T07:02:49.900Z,2.20
2023-04-04T07:03:56.959Z,2.80
2023-04-04T07:04:51.175Z,2.40
2023-04-04T07:05:50.939Z,2.20
2023-04-04T07:06:50.948Z,2.10
2023-04-04T07:07:51.610Z,2.00
2023-04-04T07:08:50.954Z,2.50
2023-04-04T07:09:50.981Z,2.30
2023-04-04T07:10:50.933Z,2.00
2023-04-04T07:11:50.900Z,2.00
2023-04-04T07:12:51.594Z,2.10
2023-04-04T07:13:50.936Z,2.00
2023-04-04T07:14:50.922Z,2.10
2023-04-04T07:15:50.888Z,2.80
2023-04-04T07:16:51.000Z,3.10
2023-04-04T07:17:50.913Z,2.50
2023-04-04T07:18:50.871Z,2.40
2023-04-04T07:19:50.832Z,2.10
2023-04-04T07:20:50.962Z,2.00
2023-04-04T07:21:50.830Z,2.30
2023-04-04T07:22:50.872Z,2.20
2023-04-04T07:23:50.847Z,2.00
2023-04-04T07:24:51.596Z,2.30
2023-04-04T07:25:50.800Z,2.20
2023-04-04T07:26:50.829Z,2.50
2023-04-04T07:27:55.135Z,2.30
2023-04-04T07:28:53.507Z,2.90
2023-04-04T07:29:51.469Z,2.60
2023-04-04T07:30:51.581Z,2.20
2023-04-04T07:31:50.818Z,2.20
2023-04-04T07:32:51.644Z,2.20
2023-04-04T07:33:50.725Z,2.80
2023-04-04T07:34:50.811Z,2.50
2023-04-04T07:35:51.596Z,2.70
2023-04-04T07:36:53.448Z,3.40
2023-04-04T07:37:51.756Z,2.90
2023-04-04T07:38:50.701Z,4.70
2023-04-04T07:39:50.695Z,3.00
2023-04-04T07:40:50.721Z,2.80
2023-04-04T07:41:50.669Z,3.40
2023-04-04T07:42:50.720Z,3.40
2023-04-04T07:43:51.299Z,3.80
2023-04-04T07:44:50.658Z,2.80
2023-04-04T07:45:50.677Z,2.60
2023-04-04T07:47:02.310Z,3.40
2023-04-04T07:47:52.673Z,3.50
2023-04-04T07:48:50.710Z,2.80
2023-04-04T07:49:50.636Z,3.90
2023-04-04T07:50:51.616Z,3.20
2023-04-04T07:51:50.571Z,2.90
2023-04-04T07:52:51.128Z,3.00
2023-04-04T07:53:50.589Z,2.50
2023-04-04T07:54:50.572Z,2.40
2023-04-04T07:55:50.557Z,3.00
2023-04-04T07:56:50.574Z,2.80
2023-04-04T07:57:50.628Z,2.70
2023-04-04T07:58:50.629Z,2.50
2023-04-04T07:59:51.426Z,2.50
2023-04-04T08:00:51.168Z,2.80
2023-04-04T08:01:50.562Z,2.50
2023-04-04T08:02:50.566Z,2.40
2023-04-04T08:03:50.779Z,2.40
2023-04-04T08:04:50.545Z,2.60
2023-04-04T08:05:51.098Z,2.50
2023-04-04T08:06:50.496Z,2.60
2023-04-04T08:07:50.500Z,2.90
2023-04-04T08:08:50.456Z,2.70
2023-04-04T08:09:50.453Z,3.00
2023-04-04T08:10:50.444Z,2.80
2023-04-04T08:11:50.516Z,2.60
2023-04-04T08:12:51.532Z,2.80
2023-04-04T08:13:51.450Z,2.70
2023-04-04T08:14:50.442Z,3.00
2023-04-04T08:15:50.428Z,2.60
2023-04-04T08:16:51.438Z,2.50
2023-04-04T08:17:50.463Z,2.80
2023-04-04T08:18:50.373Z,2.90
2023-04-04T08:19:52.928Z,3.00
2023-04-04T08:20:50.454Z,3.20
2023-04-04T08:21:50.425Z,3.40
2023-04-04T08:22:50.339Z,2.90
2023-04-04T08:23:50.392Z,3.00
2023-04-04T08:24:50.334Z,2.90
2023-04-04T08:25:50.503Z,2.70
2023-04-04T08:26:58.232Z,2.60
2023-04-04T08:27:54.192Z,2.70
2023-04-04T08:28:50.534Z,2.50
2023-04-04T08:29:51.101Z,2.60
2023-04-04T08:30:50.274Z,2.90
2023-04-04T08:31:51.172Z,2.60
2023-04-04T08:32:51.162Z,2.70
2023-04-04T08:33:50.380Z,2.30
2023-04-04T08:34:50.387Z,2.60
2023-04-04T08:35:50.344Z,2.40
2023-04-04T08:36:50.276Z,2.80
2023-04-04T08:37:50.378Z,2.70
2023-04-04T08:38:50.380Z,2.50
2023-04-04T08:39:50.809Z,2.80
2023-04-04T08:40:50.813Z,2.50
2023-04-04T08:41:50.210Z,2.70
2023-04-04T08:42:50.274Z,2.60
2023-04-04T08:43:50.224Z,2.80
2023-04-04T08:44:50.244Z,2.40
2023-04-04T08:45:50.237Z,2.40
2023-04-04T08:46:51.056Z,2.40
2023-04-04T08:47:50.273Z,2.70
2023-04-04T08:48:51.152Z,2.60
2023-04-04T08:49:51.191Z,2.40
2023-04-04T08:50:50.224Z,2.40
2023-04-04T08:51:50.152Z,2.50
2023-04-04T08:52:50.160Z,2.60
2023-04-04T08:53:51.261Z,2.40
2023-04-04T08:54:50.125Z,2.10
2023-04-04T08:55:50.107Z,2.30
2023-04-04T08:56:53.004Z,2.40
2023-04-04T08:57:51.113Z,2.70
2023-04-04T08:58:50.156Z,2.50
2023-04-04T08:59:50.144Z,2.90
2023-04-04T09:00:50.139Z,2.40
2023-04-04T09:01:51.998Z,2.40
2023-04-04T09:02:51.019Z,2.70
2023-04-04T09:03:50.055Z,2.80
2023-04-04T09:05:02.309Z,2.10
2023-04-04T09:05:52.047Z,2.60
2023-04-04T09:06:52.541Z,2.60
2023-04-04T09:07:50.676Z,2.70
2023-04-04T09:08:50.673Z,2.60
2023-04-04T09:09:50.035Z,2.70
2023-04-04T09:10:50.535Z,2.70
2023-04-04T09:11:50.683Z,2.60
2023-04-04T09:12:50.697Z,2.60
2023-04-04T09:13:50.006Z,2.60
2023-04-04T09:14:49.968Z,2.80
2023-04-04T09:15:49.969Z,2.70
2023-04-04T09:16:50.918Z,2.50
2023-04-04T09:17:50.060Z,2.80
2023-04-04T09:18:50.526Z,2.80
2023-04-04T09:19:49.972Z,2.50
2023-04-04T09:20:49.894Z,2.60
2023-04-04T09:21:50.067Z,2.90
2023-04-04T09:22:49.912Z,2.70
2023-04-04T09:23:49.876Z,3.00
2023-04-04T09:24:50.612Z,2.60
2023-04-04T09:26:50.860Z,2.20
2023-04-04T09:27:49.859Z,2.80
2023-04-04T09:28:49.861Z,2.60
2023-04-04T09:29:50.532Z,2.70
2023-04-04T09:30:49.823Z,2.60
2023-04-04T09:31:49.857Z,2.80
2023-04-04T09:32:49.836Z,2.20
2023-04-04T09:33:49.861Z,2.50
2023-04-04T09:34:49.832Z,2.40
2023-04-04T09:35:49.865Z,2.60
2023-04-04T09:36:49.782Z,2.50
2023-04-04T09:37:49.798Z,2.60
2023-04-04T09:38:50.646Z,2.40
2023-04-04T09:39:49.824Z,2.30
2023-04-04T09:40:49.873Z,2.60
2023-04-04T09:41:50.609Z,2.50
2023-04-04T09:42:49.739Z,2.20
2023-04-04T09:43:50.059Z,2.60
2023-04-04T09:44:50.716Z,2.40
2023-04-04T09:45:50.194Z,2.30
2023-04-04T09:46:50.548Z,2.80
2023-04-04T09:47:49.764Z,2.60
2023-04-04T09:48:49.726Z,2.30
2023-04-04T09:49:49.782Z,2.80
2023-04-04T09:50:49.658Z,2.70
2023-04-04T09:51:49.794Z,2.80
2023-04-04T09:52:50.154Z,2.50
2023-04-04T09:53:49.671Z,2.90
2023-04-04T09:54:49.668Z,2.40
2023-04-04T09:55:49.609Z,2.40
2023-04-04T09:56:49.654Z,2.30
2023-04-04T09:57:49.725Z,2.70
2023-04-04T09:59:02.333Z,2.40
2023-04-04T09:59:52.185Z,2.40
2023-04-04T10:00:49.632Z,2.50
2023-04-04T10:01:49.785Z,2.30
2023-04-04T10:02:49.648Z,2.60
2023-04-04T10:03:49.595Z,2.50
2023-04-04T10:04:53.679Z,2.50
2023-04-04T10:05:52.584Z,2.40
2023-04-04T10:06:50.601Z,2.60
2023-04-04T10:07:49.597Z,2.60
2023-04-04T10:08:49.590Z,2.50
2023-04-04T10:09:50.175Z,2.60
2023-04-04T10:11:02.517Z,2.40
2023-04-04T10:11:51.535Z,2.40
2023-04-04T10:12:50.154Z,2.30
2023-04-04T10:13:49.535Z,2.40
2023-04-04T10:14:49.526Z,2.50
2023-04-04T10:15:49.547Z,2.60
2023-04-04T10:16:49.473Z,2.30
2023-04-04T10:17:50.504Z,2.50
2023-04-04T10:18:49.469Z,2.30
2023-04-04T10:19:49.446Z,1.90
2023-04-04T10:20:50.112Z,2.10
2023-04-04T10:21:49.478Z,2.10
2023-04-04T10:22:50.426Z,2.00
2023-04-04T10:23:49.447Z,2.30
2023-04-04T10:24:49.413Z,2.20
2023-04-04T10:25:49.438Z,2.40
2023-04-04T10:26:49.379Z,2.20
2023-04-04T10:27:51.351Z,2.40
2023-04-04T10:28:49.393Z,2.40
2023-04-04T10:29:50.128Z,2.10
2023-04-04T10:31:03.148Z,2.40
2023-04-04T10:31:51.385Z,2.30
2023-04-04T10:32:49.416Z,2.40
2023-04-04T10:33:49.361Z,2.40
2023-04-04T10:34:50.056Z,2.40
2023-04-04T10:35:49.409Z,2.10
2023-04-04T10:36:49.389Z,2.40
2023-04-04T10:37:49.285Z,2.50
2023-04-04T10:38:49.309Z,2.40
2023-04-04T10:39:49.313Z,2.20
2023-04-04T10:40:49.364Z,2.30
2023-04-04T10:41:49.294Z,2.40
2023-04-04T10:42:50.046Z,2.20
2023-04-04T10:43:49.280Z,2.40
2023-04-04T10:44:49.278Z,2.30
2023-04-04T10:45:49.223Z,2.20
2023-04-04T10:46:49.282Z,2.30
2023-04-04T10:47:49.379Z,2.40
2023-04-04T10:48:49.303Z,2.30
2023-04-04T10:49:49.235Z,2.50
2023-04-04T10:50:49.222Z,2.40
2023-04-04T10:51:55.671Z,2.30
2023-04-04T10:52:52.066Z,2.30
2023-04-04T10:53:49.294Z,2.70
2023-04-04T10:54:50.979Z,2.10
2023-04-04T10:55:49.207Z,2.40
2023-04-04T10:56:49.145Z,2.10
2023-04-04T10:57:50.184Z,2.20
2023-04-04T10:58:49.174Z,2.30
2023-04-04T10:59:49.166Z,2.30
2023-04-04T11:00:49.147Z,2.10
2023-04-04T11:01:49.138Z,2.30
2023-04-04T11:02:50.072Z,2.20
2023-04-04T11:03:49.131Z,2.30
2023-04-04T11:04:49.089Z,2.20
2023-04-04T11:05:49.713Z,2.10
2023-04-04T11:06:49.053Z,2.20
2023-04-04T11:08:00.760Z,2.20
2023-04-04T11:08:51.079Z,2.20
2023-04-04T11:09:49.084Z,2.30
2023-04-04T11:10:49.132Z,2.20
2023-04-04T11:11:49.029Z,2.10
2023-04-04T11:12:49.338Z,2.20
2023-04-04T11:13:49.022Z,1.90
2023-04-04T11:14:49.047Z,2.20
2023-04-04T11:15:48.998Z,2.20
2023-04-04T11:16:49.724Z,1.90
2023-04-04T11:17:48.994Z,1.80
2023-04-04T11:18:49.122Z,2.10
2023-04-04T11:19:48.981Z,1.90
2023-04-04T11:20:48.986Z,2.10
2023-04-04T11:21:49.567Z,2.00
2023-04-04T11:22:48.992Z,2.30
2023-04-04T11:23:48.968Z,4.60
2023-04-04T11:24:48.913Z,1.90
2023-04-04T11:25:49.633Z,2.10
2023-04-04T11:26:48.914Z,2.00
2023-04-04T11:27:48.972Z,2.20
2023-04-04T11:28:48.880Z,2.20
2023-04-04T11:29:48.897Z,2.10
2023-04-04T11:30:49.584Z,2.40
2023-04-04T11:31:48.901Z,3.20
2023-04-04T11:33:04.102Z,2.30
2023-04-04T11:33:50.857Z,2.40
2023-04-04T11:34:48.871Z,2.20
2023-04-04T11:35:48.875Z,2.10
2023-04-04T11:36:48.862Z,2.40
2023-04-04T11:37:49.649Z,2.30
2023-04-04T11:38:49.509Z,2.10
2023-04-04T11:39:49.681Z,2.10
2023-04-04T11:40:48.775Z,2.20
2023-04-04T11:41:48.835Z,2.30
2023-04-04T11:42:48.818Z,2.10
2023-04-04T11:43:48.774Z,2.00
2023-04-04T11:44:48.833Z,2.20
2023-04-04T11:45:48.896Z,2.20
2023-04-04T11:46:51.016Z,2.00
2023-04-04T11:47:50.237Z,2.00
2023-04-04T11:48:48.737Z,2.00
2023-04-04T11:49:48.798Z,1.80
2023-04-04T11:50:48.716Z,2.00
2023-04-04T11:51:48.696Z,2.10
2023-04-04T11:52:48.746Z,2.10
2023-04-04T11:53:49.649Z,2.20
2023-04-04T11:54:48.674Z,2.10
2023-04-04T11:55:49.577Z,2.20
2023-04-04T11:56:48.669Z,2.30
2023-04-04T11:57:48.663Z,2.10
2023-04-04T11:58:53.867Z,2.30
2023-04-04T11:59:49.734Z,2.20
2023-04-04T12:00:48.640Z,2.80
2023-04-04T12:01:48.823Z,2.60
2023-04-04T12:02:48.739Z,2.30
2023-04-04T12:03:48.640Z,2.50
2023-04-04T12:04:48.639Z,2.10
2023-04-04T12:05:48.676Z,2.10
2023-04-04T12:06:48.707Z,2.40
2023-04-04T12:07:48.596Z,1.90
2023-04-04T12:08:48.568Z,2.40
2023-04-04T12:09:50.093Z,2.40
2023-04-04T12:10:48.559Z,2.40
2023-04-04T12:11:48.587Z,2.30
2023-04-04T12:12:48.558Z,2.30
2023-04-04T12:13:48.581Z,1.90
2023-04-04T12:14:48.531Z,2.00
2023-04-04T12:15:49.157Z,2.20
2023-04-04T12:16:48.499Z,2.20
2023-04-04T12:17:49.492Z,2.40
2023-04-04T12:18:48.543Z,2.40
2023-04-04T12:19:48.515Z,2.30
2023-04-04T12:20:48.488Z,2.20
2023-04-04T12:21:48.519Z,2.40
2023-04-04T12:22:48.470Z,2.30
2023-04-04T12:23:48.510Z,2.20
2023-04-04T12:24:48.456Z,2.20
2023-04-04T12:25:48.513Z,2.70
2023-04-04T12:26:49.488Z,2.20
2023-04-04T12:27:48.432Z,2.20
2023-04-04T12:28:48.472Z,2.20
2023-04-04T12:29:50.193Z,2.20
2023-04-04T12:30:48.413Z,2.10
2023-04-04T12:31:48.482Z,2.10
2023-04-04T12:32:48.564Z,2.20
2023-04-04T12:33:49.173Z,2.10
2023-04-04T12:34:50.774Z,2.00
2023-04-04T12:35:49.438Z,2.20
2023-04-04T12:36:48.337Z,2.00
2023-04-04T12:37:48.357Z,2.00
2023-04-04T12:38:49.233Z,2.20
2023-04-04T12:39:48.342Z,2.20
2023-04-04T12:40:48.362Z,2.50
2023-04-04T12:41:48.397Z,2.40
2023-04-04T12:42:48.314Z,2.50
2023-04-04T12:43:49.078Z,2.40
2023-04-04T12:44:48.292Z,2.10
2023-04-04T12:45:49.034Z,2.30
2023-04-04T12:46:49.159Z,2.00
2023-04-04T12:47:48.343Z,2.40
2023-04-04T12:48:48.278Z,2.10
2023-04-04T12:49:49.268Z,2.00
2023-04-04T12:50:48.270Z,2.30
2023-04-04T12:51:48.285Z,2.50
2023-04-04T12:52:48.228Z,2.40
2023-04-04T12:53:48.235Z,2.30
2023-04-04T12:54:50.860Z,2.80
2023-04-04T12:55:50.299Z,4.60
2023-04-04T12:56:48.260Z,5.30
2023-04-04T12:57:48.284Z,4.50
2023-04-04T12:58:48.255Z,3.00
2023-04-04T12:59:48.185Z,2.20
2023-04-04T13:00:49.042Z,2.40
2023-04-04T13:01:48.188Z,2.50
2023-04-04T13:02:49.063Z,2.60
2023-04-04T13:03:48.180Z,2.50
2023-04-04T13:05:21.160Z,2.30
2023-04-04T13:06:23.186Z,2.30
2023-04-04T13:06:48.136Z,2.40
2023-04-04T13:08:20.964Z,2.20
2023-04-04T13:08:48.442Z,2.70
2023-04-04T13:09:48.101Z,2.40
2023-04-04T13:10:48.208Z,2.20
2023-04-04T13:11:48.134Z,2.50
2023-04-04T13:12:48.118Z,2.30
2023-04-04T13:14:48.797Z,2.20
2023-04-04T13:15:48.082Z,2.30
2023-04-04T13:16:48.050Z,2.20
2023-04-04T13:17:48.135Z,2.50
2023-04-04T13:18:48.075Z,2.40
2023-04-04T13:19:48.071Z,2.50
2023-04-04T13:20:48.025Z,2.20
2023-04-04T13:21:48.030Z,2.20
2023-04-04T13:22:48.222Z,2.20
2023-04-04T13:23:48.017Z,2.30
2023-04-04T13:24:47.988Z,2.40
2023-04-04T13:25:48.960Z,2.20
2023-04-04T13:26:48.025Z,2.10
2023-04-04T13:27:47.957Z,2.40
2023-04-04T13:28:48.809Z,2.10
2023-04-04T13:29:47.968Z,2.20
2023-04-04T13:30:48.007Z,2.20
2023-04-04T13:31:47.945Z,2.50
2023-04-04T13:32:47.953Z,2.50
2023-04-04T13:33:48.062Z,2.10
2023-04-04T13:34:47.915Z,2.20
2023-04-04T13:35:47.908Z,2.50
2023-04-04T13:36:47.932Z,2.20
2023-04-04T13:37:47.878Z,2.50